Tipton, Oklahoma
Current Conditions -  °F | °C
As of 3:58 AM on Saturday 25 Oct 2014 (Local Time) from KLTS Reporting Station
Clear Clear  
Wind Chill: 14°   Ceiling: Unl
Heat Index: 14°   Visibility: 10mi
Dew Point: 14°   Wind: 5mph
Humidity: 99%   Direction: 100°E
Pressure: 30.07"   Gusts: NA
Location:  34.5°N, 99.14°W
Report Text: KLTS 250858Z AUTO 10004KT 10SM CLR 14/14 A3007 RMK AO2 SLP170 T01360135 50001 $
Loading
Personal Weather Stations






























Interactive Weather Map
Tropical Storm Tracking
New forecast layout! Learn more

10-Day Weather Forecast

Advertisements
Track Severe Weather on mobile